sensor_id;sensor_type;location;lat;lon;timestamp;P1;durP1;ratioP1;P2;durP2;ratioP2
12519;SDS011;6325;49.540;8.364;2024-03-08T00:01:09;9.65;;;8.63;;
12519;SDS011;6325;49.540;8.364;2024-03-08T00:03:35;9.95;;;8.40;;
12519;SDS011;6325;49.540;8.364;2024-03-08T00:06:02;9.50;;;8.40;;
12519;SDS011;6325;49.540;8.364;2024-03-08T00:08:31;9.50;;;8.50;;
12519;SDS011;6325;49.540;8.364;2024-03-08T00:10:57;9.85;;;8.32;;
12519;SDS011;6325;49.540;8.364;2024-03-08T00:13:25;9.43;;;8.43;;
12519;SDS011;6325;49.540;8.364;2024-03-08T00:15:53;9.27;;;8.38;;
12519;SDS011;6325;49.540;8.364;2024-03-08T00:18:21;10.02;;;8.73;;
12519;SDS011;6325;49.540;8.364;2024-03-08T00:20:48;9.40;;;8.40;;
12519;SDS011;6325;49.540;8.364;2024-03-08T00:23:14;9.07;;;8.17;;
12519;SDS011;6325;49.540;8.364;2024-03-08T00:25:41;9.50;;;8.50;;
12519;SDS011;6325;49.540;8.364;2024-03-08T00:28:08;11.27;;;9.55;;
12519;SDS011;6325;49.540;8.364;2024-03-08T00:30:39;11.23;;;8.95;;
12519;SDS011;6325;49.540;8.364;2024-03-08T00:33:07;9.90;;;8.48;;
12519;SDS011;6325;49.540;8.364;2024-03-08T00:35:34;10.02;;;8.95;;
12519;SDS011;6325;49.540;8.364;2024-03-08T00:38:01;9.52;;;8.52;;
12519;SDS011;6325;49.540;8.364;2024-03-08T00:40:28;10.35;;;8.80;;
12519;SDS011;6325;49.540;8.364;2024-03-08T00:42:55;10.25;;;8.77;;
12519;SDS011;6325;49.540;8.364;2024-03-08T00:45:21;9.32;;;8.32;;
12519;SDS011;6325;49.540;8.364;2024-03-08T00:47:50;9.45;;;8.48;;
12519;SDS011;6325;49.540;8.364;2024-03-08T00:50:16;10.53;;;8.70;;
12519;SDS011;6325;49.540;8.364;2024-03-08T00:52:44;9.77;;;8.18;;
12519;SDS011;6325;49.540;8.364;2024-03-08T00:55:11;9.02;;;8.10;;
12519;SDS011;6325;49.540;8.364;2024-03-08T00:57:38;10.57;;;8.63;;
12519;SDS011;6325;49.540;8.364;2024-03-08T01:00:05;9.57;;;8.32;;
12519;SDS011;6325;49.540;8.364;2024-03-08T01:02:36;9.27;;;8.02;;
12519;SDS011;6325;49.540;8.364;2024-03-08T01:05:05;9.57;;;8.45;;
12519;SDS011;6325;49.540;8.364;2024-03-08T01:07:33;9.57;;;8.57;;
12519;SDS011;6325;49.540;8.364;2024-03-08T01:10:00;9.15;;;8.23;;
12519;SDS011;6325;49.540;8.364;2024-03-08T01:12:26;10.95;;;9.35;;
12519;SDS011;6325;49.540;8.364;2024-03-08T01:14:54;9.50;;;8.45;;
12519;SDS011;6325;49.540;8.364;2024-03-08T01:17:21;10.90;;;8.98;;
12519;SDS011;6325;49.540;8.364;2024-03-08T01:19:49;11.13;;;9.30;;
12519;SDS011;6325;49.540;8.364;2024-03-08T01:22:17;10.75;;;9.13;;
12519;SDS011;6325;49.540;8.364;2024-03-08T01:24:44;10.23;;;9.13;;
12519;SDS011;6325;49.540;8.364;2024-03-08T01:27:10;10.10;;;8.60;;
12519;SDS011;6325;49.540;8.364;2024-03-08T01:29:37;10.73;;;9.25;;
12519;SDS011;6325;49.540;8.364;2024-03-08T01:32:04;9.90;;;8.90;;
12519;SDS011;6325;49.540;8.364;2024-03-08T01:34:31;10.40;;;9.30;;
12519;SDS011;6325;49.540;8.364;2024-03-08T01:36:58;10.40;;;8.77;;
12519;SDS011;6325;49.540;8.364;2024-03-08T01:39:27;10.13;;;8.93;;
12519;SDS011;6325;49.540;8.364;2024-03-08T01:41:54;10.07;;;8.88;;
12519;SDS011;6325;49.540;8.364;2024-03-08T01:44:20;9.70;;;8.65;;
12519;SDS011;6325;49.540;8.364;2024-03-08T01:47:20;10.80;;;8.55;;
12519;SDS011;6325;49.540;8.364;2024-03-08T01:50:18;11.10;;;9.20;;
12519;SDS011;6325;49.540;8.364;2024-03-08T01:52:45;9.77;;;8.77;;
12519;SDS011;6325;49.540;8.364;2024-03-08T01:55:13;11.52;;;9.38;;
12519;SDS011;6325;49.540;8.364;2024-03-08T01:57:40;10.02;;;8.95;;
12519;SDS011;6325;49.540;8.364;2024-03-08T02:00:07;10.38;;;9.27;;
12519;SDS011;6325;49.540;8.364;2024-03-08T02:02:36;9.88;;;8.88;;
12519;SDS011;6325;49.540;8.364;2024-03-08T02:05:04;10.63;;;9.00;;
12519;SDS011;6325;49.540;8.364;2024-03-08T02:07:31;10.63;;;9.35;;
12519;SDS011;6325;49.540;8.364;2024-03-08T02:09:58;10.38;;;9.00;;
12519;SDS011;6325;49.540;8.364;2024-03-08T02:12:27;10.10;;;8.63;;
12519;SDS011;6325;49.540;8.364;2024-03-08T02:14:53;10.35;;;9.25;;
12519;SDS011;6325;49.540;8.364;2024-03-08T02:17:21;10.02;;;8.60;;
12519;SDS011;6325;49.540;8.364;2024-03-08T02:19:48;10.15;;;9.00;;
12519;SDS011;6325;49.540;8.364;2024-03-08T02:22:16;11.77;;;9.02;;
12519;SDS011;6325;49.540;8.364;2024-03-08T02:24:43;10.50;;;8.80;;
12519;SDS011;6325;49.540;8.364;2024-03-08T02:27:10;10.55;;;9.27;;
12519;SDS011;6325;49.540;8.364;2024-03-08T02:29:37;11.60;;;9.23;;
12519;SDS011;6325;49.540;8.364;2024-03-08T02:32:06;10.63;;;9.25;;
12519;SDS011;6325;49.540;8.364;2024-03-08T02:34:32;10.70;;;9.32;;
12519;SDS011;6325;49.540;8.364;2024-03-08T02:36:59;10.57;;;9.48;;
12519;SDS011;6325;49.540;8.364;2024-03-08T02:39:27;12.02;;;9.95;;
12519;SDS011;6325;49.540;8.364;2024-03-08T02:41:54;10.70;;;9.13;;
12519;SDS011;6325;49.540;8.364;2024-03-08T02:44:21;9.73;;;8.73;;
12519;SDS011;6325;49.540;8.364;2024-03-08T02:46:48;10.20;;;9.10;;
12519;SDS011;6325;49.540;8.364;2024-03-08T02:49:15;11.85;;;9.77;;
12519;SDS011;6325;49.540;8.364;2024-03-08T02:51:42;11.32;;;9.45;;
12519;SDS011;6325;49.540;8.364;2024-03-08T02:54:09;10.93;;;9.52;;
12519;SDS011;6325;49.540;8.364;2024-03-08T02:56:37;10.90;;;9.30;;
12519;SDS011;6325;49.540;8.364;2024-03-08T02:59:04;11.43;;;9.57;;
12519;SDS011;6325;49.540;8.364;2024-03-08T03:01:31;11.50;;;9.20;;
12519;SDS011;6325;49.540;8.364;2024-03-08T03:03:58;10.57;;;9.48;;
12519;SDS011;6325;49.540;8.364;2024-03-08T03:06:24;9.80;;;8.80;;
12519;SDS011;6325;49.540;8.364;2024-03-08T03:08:51;9.70;;;8.70;;
12519;SDS011;6325;49.540;8.364;2024-03-08T03:11:18;11.35;;;8.93;;
12519;SDS011;6325;49.540;8.364;2024-03-08T03:13:46;10.27;;;9.10;;
12519;SDS011;6325;49.540;8.364;2024-03-08T03:16:16;9.80;;;8.57;;
12519;SDS011;6325;49.540;8.364;2024-03-08T03:18:44;10.98;;;8.93;;
12519;SDS011;6325;49.540;8.364;2024-03-08T03:21:11;9.38;;;8.27;;
12519;SDS011;6325;49.540;8.364;2024-03-08T03:23:38;10.60;;;8.90;;
12519;SDS011;6325;49.540;8.364;2024-03-08T03:26:06;11.07;;;8.20;;
12519;SDS011;6325;49.540;8.364;2024-03-08T03:28:33;10.48;;;8.82;;
12519;SDS011;6325;49.540;8.364;2024-03-08T03:31:01;8.97;;;8.00;;
12519;SDS011;6325;49.540;8.364;2024-03-08T03:33:27;10.27;;;8.82;;
12519;SDS011;6325;49.540;8.364;2024-03-08T03:35:54;10.87;;;8.90;;
12519;SDS011;6325;49.540;8.364;2024-03-08T03:38:21;9.80;;;8.55;;
12519;SDS011;6325;49.540;8.364;2024-03-08T03:40:48;10.82;;;8.85;;
12519;SDS011;6325;49.540;8.364;2024-03-08T03:43:17;10.48;;;8.80;;
12519;SDS011;6325;49.540;8.364;2024-03-08T03:45:44;9.57;;;8.50;;
12519;SDS011;6325;49.540;8.364;2024-03-08T03:48:12;10.27;;;9.07;;
12519;SDS011;6325;49.540;8.364;2024-03-08T03:50:39;9.52;;;8.25;;
12519;SDS011;6325;49.540;8.364;2024-03-08T03:53:06;9.40;;;8.40;;
12519;SDS011;6325;49.540;8.364;2024-03-08T03:55:33;9.10;;;7.80;;
12519;SDS011;6325;49.540;8.364;2024-03-08T03:58:00;9.70;;;8.38;;
12519;SDS011;6325;49.540;8.364;2024-03-08T04:00:28;9.33;;;8.33;;
12519;SDS011;6325;49.540;8.364;2024-03-08T04:02:54;8.90;;;8.00;;
12519;SDS011;6325;49.540;8.364;2024-03-08T04:05:25;8.95;;;8.05;;
12519;SDS011;6325;49.540;8.364;2024-03-08T04:07:52;9.93;;;8.18;;
12519;SDS011;6325;49.540;8.364;2024-03-08T04:10:19;9.23;;;8.15;;
12519;SDS011;6325;49.540;8.364;2024-03-08T04:12:45;9.00;;;8.10;;
12519;SDS011;6325;49.540;8.364;2024-03-08T04:15:12;9.40;;;8.40;;
12519;SDS011;6325;49.540;8.364;2024-03-08T04:17:40;9.27;;;8.30;;
12519;SDS011;6325;49.540;8.364;2024-03-08T04:20:07;10.85;;;8.60;;
12519;SDS011;6325;49.540;8.364;2024-03-08T04:22:36;9.77;;;8.43;;
12519;SDS011;6325;49.540;8.364;2024-03-08T04:25:04;9.93;;;8.20;;
12519;SDS011;6325;49.540;8.364;2024-03-08T04:27:31;9.20;;;8.20;;
12519;SDS011;6325;49.540;8.364;2024-03-08T04:29:59;10.52;;;8.82;;
12519;SDS011;6325;49.540;8.364;2024-03-08T04:32:25;9.25;;;8.15;;
12519;SDS011;6325;49.540;8.364;2024-03-08T04:34:54;10.73;;;8.98;;
12519;SDS011;6325;49.540;8.364;2024-03-08T04:37:21;10.20;;;8.90;;
12519;SDS011;6325;49.540;8.364;2024-03-08T04:39:50;10.35;;;8.95;;
12519;SDS011;6325;49.540;8.364;2024-03-08T04:42:16;10.05;;;8.80;;
12519;SDS011;6325;49.540;8.364;2024-03-08T04:44:43;9.57;;;8.57;;
12519;SDS011;6325;49.540;8.364;2024-03-08T04:47:10;9.43;;;7.65;;
12519;SDS011;6325;49.540;8.364;2024-03-08T04:49:37;9.30;;;8.10;;
12519;SDS011;6325;49.540;8.364;2024-03-08T04:52:04;9.70;;;8.43;;
12519;SDS011;6325;49.540;8.364;2024-03-08T04:54:32;10.07;;;8.90;;
12519;SDS011;6325;49.540;8.364;2024-03-08T04:57:00;9.63;;;8.05;;
12519;SDS011;6325;49.540;8.364;2024-03-08T04:59:27;10.02;;;8.60;;
12519;SDS011;6325;49.540;8.364;2024-03-08T05:01:54;9.52;;;8.43;;
12519;SDS011;6325;49.540;8.364;2024-03-08T05:04:21;10.93;;;9.10;;
12519;SDS011;6325;49.540;8.364;2024-03-08T05:06:48;10.25;;;8.80;;
12519;SDS011;6325;49.540;8.364;2024-03-08T05:09:15;9.82;;;8.70;;
12519;SDS011;6325;49.540;8.364;2024-03-08T05:11:42;10.65;;;9.02;;
12519;SDS011;6325;49.540;8.364;2024-03-08T05:14:11;11.27;;;9.15;;
12519;SDS011;6325;49.540;8.364;2024-03-08T05:16:41;10.25;;;8.77;;
12519;SDS011;6325;49.540;8.364;2024-03-08T05:19:08;11.15;;;9.35;;
12519;SDS011;6325;49.540;8.364;2024-03-08T05:21:35;10.65;;;9.02;;
12519;SDS011;6325;49.540;8.364;2024-03-08T05:24:01;10.85;;;9.07;;
12519;SDS011;6325;49.540;8.364;2024-03-08T05:26:29;11.27;;;9.77;;
12519;SDS011;6325;49.540;8.364;2024-03-08T05:28:58;10.20;;;8.80;;
12519;SDS011;6325;49.540;8.364;2024-03-08T05:31:26;10.55;;;9.13;;
12519;SDS011;6325;49.540;8.364;2024-03-08T05:33:53;10.95;;;9.23;;
12519;SDS011;6325;49.540;8.364;2024-03-08T05:36:20;11.30;;;9.43;;
12519;SDS011;6325;49.540;8.364;2024-03-08T05:38:47;11.98;;;9.80;;
12519;SDS011;6325;49.540;8.364;2024-03-08T05:41:15;11.00;;;9.45;;
12519;SDS011;6325;49.540;8.364;2024-03-08T05:43:42;10.88;;;9.40;;
12519;SDS011;6325;49.540;8.364;2024-03-08T05:46:09;11.05;;;9.27;;
12519;SDS011;6325;49.540;8.364;2024-03-08T05:48:38;10.80;;;9.35;;
12519;SDS011;6325;49.540;8.364;2024-03-08T05:51:04;11.50;;;9.60;;
12519;SDS011;6325;49.540;8.364;2024-03-08T05:53:31;10.80;;;9.48;;
12519;SDS011;6325;49.540;8.364;2024-03-08T05:55:58;10.95;;;9.35;;
12519;SDS011;6325;49.540;8.364;2024-03-08T05:58:27;10.63;;;9.50;;
12519;SDS011;6325;49.540;8.364;2024-03-08T06:00:55;10.63;;;9.43;;
12519;SDS011;6325;49.540;8.364;2024-03-08T06:03:21;10.63;;;9.10;;
12519;SDS011;6325;49.540;8.364;2024-03-08T06:05:49;11.63;;;9.85;;
12519;SDS011;6325;49.540;8.364;2024-03-08T06:08:16;11.82;;;9.80;;
12519;SDS011;6325;49.540;8.364;2024-03-08T06:10:43;11.45;;;9.68;;
12519;SDS011;6325;49.540;8.364;2024-03-08T06:13:13;11.57;;;9.48;;
12519;SDS011;6325;49.540;8.364;2024-03-08T06:15:40;11.15;;;9.65;;
12519;SDS011;6325;49.540;8.364;2024-03-08T06:18:07;10.18;;;8.95;;
12519;SDS011;6325;49.540;8.364;2024-03-08T06:20:35;11.02;;;9.00;;
12519;SDS011;6325;49.540;8.364;2024-03-08T06:23:04;12.15;;;9.68;;
12519;SDS011;6325;49.540;8.364;2024-03-08T06:25:30;10.82;;;9.52;;
12519;SDS011;6325;49.540;8.364;2024-03-08T06:27:57;10.27;;;9.15;;
12519;SDS011;6325;49.540;8.364;2024-03-08T06:30:24;11.55;;;9.55;;
12519;SDS011;6325;49.540;8.364;2024-03-08T06:32:50;11.60;;;9.65;;
12519;SDS011;6325;49.540;8.364;2024-03-08T06:35:17;10.07;;;8.65;;
12519;SDS011;6325;49.540;8.364;2024-03-08T06:37:45;11.43;;;9.07;;
12519;SDS011;6325;49.540;8.364;2024-03-08T06:40:13;11.63;;;9.80;;
12519;SDS011;6325;49.540;8.364;2024-03-08T06:42:39;11.57;;;9.67;;
12519;SDS011;6325;49.540;8.364;2024-03-08T06:45:06;11.20;;;9.45;;
12519;SDS011;6325;49.540;8.364;2024-03-08T06:47:35;11.23;;;9.68;;
12519;SDS011;6325;49.540;8.364;2024-03-08T06:50:02;11.98;;;9.70;;
12519;SDS011;6325;49.540;8.364;2024-03-08T06:52:30;11.70;;;9.50;;
12519;SDS011;6325;49.540;8.364;2024-03-08T06:54:58;10.98;;;9.07;;
12519;SDS011;6325;49.540;8.364;2024-03-08T06:57:28;12.50;;;10.07;;
12519;SDS011;6325;49.540;8.364;2024-03-08T06:59:54;11.57;;;9.63;;
12519;SDS011;6325;49.540;8.364;2024-03-08T07:02:22;11.68;;;10.18;;
12519;SDS011;6325;49.540;8.364;2024-03-08T07:04:49;13.02;;;10.13;;
12519;SDS011;6325;49.540;8.364;2024-03-08T07:07:16;11.50;;;9.98;;
12519;SDS011;6325;49.540;8.364;2024-03-08T07:09:45;10.95;;;9.10;;
12519;SDS011;6325;49.540;8.364;2024-03-08T07:12:14;11.38;;;9.82;;
12519;SDS011;6325;49.540;8.364;2024-03-08T07:14:42;12.75;;;9.65;;
12519;SDS011;6325;49.540;8.364;2024-03-08T07:17:10;11.60;;;9.57;;
12519;SDS011;6325;49.540;8.364;2024-03-08T07:19:37;11.23;;;9.23;;
12519;SDS011;6325;49.540;8.364;2024-03-08T07:22:04;10.98;;;9.48;;
12519;SDS011;6325;49.540;8.364;2024-03-08T07:24:33;11.32;;;9.48;;
12519;SDS011;6325;49.540;8.364;2024-03-08T07:27:15;11.40;;;9.85;;
12519;SDS011;6325;49.540;8.364;2024-03-08T07:29:43;12.15;;;10.20;;
12519;SDS011;6325;49.540;8.364;2024-03-08T07:32:10;12.65;;;10.95;;
12519;SDS011;6325;49.540;8.364;2024-03-08T07:34:46;11.77;;;9.88;;
12519;SDS011;6325;49.540;8.364;2024-03-08T07:37:13;12.23;;;10.02;;
12519;SDS011;6325;49.540;8.364;2024-03-08T07:39:40;11.93;;;10.43;;
12519;SDS011;6325;49.540;8.364;2024-03-08T07:42:07;12.63;;;10.75;;
12519;SDS011;6325;49.540;8.364;2024-03-08T07:44:33;11.05;;;9.80;;
12519;SDS011;6325;49.540;8.364;2024-03-08T07:47:01;10.55;;;9.45;;
12519;SDS011;6325;49.540;8.364;2024-03-08T07:49:28;11.07;;;9.83;;
12519;SDS011;6325;49.540;8.364;2024-03-08T07:51:55;11.55;;;9.85;;
12519;SDS011;6325;49.540;8.364;2024-03-08T07:54:22;11.70;;;9.90;;
12519;SDS011;6325;49.540;8.364;2024-03-08T07:56:50;11.38;;;10.18;;
12519;SDS011;6325;49.540;8.364;2024-03-08T07:59:17;11.77;;;9.73;;
12519;SDS011;6325;49.540;8.364;2024-03-08T08:01:46;11.60;;;10.10;;
12519;SDS011;6325;49.540;8.364;2024-03-08T08:04:14;10.90;;;9.70;;
12519;SDS011;6325;49.540;8.364;2024-03-08T08:06:43;11.80;;;10.35;;
12519;SDS011;6325;49.540;8.364;2024-03-08T08:09:09;11.82;;;9.98;;
12519;SDS011;6325;49.540;8.364;2024-03-08T08:11:39;12.00;;;10.38;;
12519;SDS011;6325;49.540;8.364;2024-03-08T08:14:08;10.83;;;9.73;;
12519;SDS011;6325;49.540;8.364;2024-03-08T08:16:35;11.15;;;9.80;;
12519;SDS011;6325;49.540;8.364;2024-03-08T08:19:02;11.05;;;9.77;;
12519;SDS011;6325;49.540;8.364;2024-03-08T08:21:33;10.77;;;9.68;;
12519;SDS011;6325;49.540;8.364;2024-03-08T08:24:01;10.38;;;9.27;;
12519;SDS011;6325;49.540;8.364;2024-03-08T08:26:28;11.23;;;9.80;;
12519;SDS011;6325;49.540;8.364;2024-03-08T08:28:55;10.45;;;9.15;;
12519;SDS011;6325;49.540;8.364;2024-03-08T08:31:22;10.43;;;9.33;;
12519;SDS011;6325;49.540;8.364;2024-03-08T08:33:49;10.65;;;9.02;;
12519;SDS011;6325;49.540;8.364;2024-03-08T08:36:18;10.98;;;9.77;;
12519;SDS011;6325;49.540;8.364;2024-03-08T08:38:46;10.85;;;9.23;;
12519;SDS011;6325;49.540;8.364;2024-03-08T08:41:13;10.60;;;9.50;;
12519;SDS011;6325;49.540;8.364;2024-03-08T08:43:42;10.50;;;8.95;;
12519;SDS011;6325;49.540;8.364;2024-03-08T08:46:09;11.02;;;9.73;;
12519;SDS011;6325;49.540;8.364;2024-03-08T08:48:38;11.80;;;9.57;;
12519;SDS011;6325;49.540;8.364;2024-03-08T08:51:06;10.45;;;9.40;;
12519;SDS011;6325;49.540;8.364;2024-03-08T08:53:37;11.85;;;10.65;;
12519;SDS011;6325;49.540;8.364;2024-03-08T08:56:07;11.45;;;9.90;;
12519;SDS011;6325;49.540;8.364;2024-03-08T08:58:34;11.35;;;9.90;;
12519;SDS011;6325;49.540;8.364;2024-03-08T09:01:00;11.10;;;9.93;;
12519;SDS011;6325;49.540;8.364;2024-03-08T09:03:27;11.07;;;9.90;;
12519;SDS011;6325;49.540;8.364;2024-03-08T09:05:54;10.30;;;9.20;;
12519;SDS011;6325;49.540;8.364;2024-03-08T09:08:21;12.93;;;10.00;;
12519;SDS011;6325;49.540;8.364;2024-03-08T09:10:49;10.70;;;9.60;;
12519;SDS011;6325;49.540;8.364;2024-03-08T09:13:18;10.95;;;9.77;;
12519;SDS011;6325;49.540;8.364;2024-03-08T09:15:44;10.75;;;9.65;;
12519;SDS011;6325;49.540;8.364;2024-03-08T09:18:11;10.48;;;9.48;;
12519;SDS011;6325;49.540;8.364;2024-03-08T09:20:38;10.40;;;9.40;;
12519;SDS011;6325;49.540;8.364;2024-03-08T09:23:06;10.48;;;9.38;;
12519;SDS011;6325;49.540;8.364;2024-03-08T09:25:33;10.82;;;9.70;;
12519;SDS011;6325;49.540;8.364;2024-03-08T09:28:00;10.75;;;9.63;;
12519;SDS011;6325;49.540;8.364;2024-03-08T09:30:28;10.52;;;9.40;;
12519;SDS011;6325;49.540;8.364;2024-03-08T09:32:55;10.68;;;9.55;;
12519;SDS011;6325;49.540;8.364;2024-03-08T09:35:21;9.90;;;8.90;;
12519;SDS011;6325;49.540;8.364;2024-03-08T09:37:48;11.02;;;9.90;;
12519;SDS011;6325;49.540;8.364;2024-03-08T09:40:16;11.02;;;9.93;;
12519;SDS011;6325;49.540;8.364;2024-03-08T09:42:44;10.38;;;9.38;;
12519;SDS011;6325;49.540;8.364;2024-03-08T09:45:12;10.80;;;9.70;;
12519;SDS011;6325;49.540;8.364;2024-03-08T09:47:41;11.45;;;9.90;;
12519;SDS011;6325;49.540;8.364;2024-03-08T09:50:10;10.18;;;9.18;;
12519;SDS011;6325;49.540;8.364;2024-03-08T09:52:37;11.20;;;9.82;;
12519;SDS011;6325;49.540;8.364;2024-03-08T09:55:05;10.90;;;9.80;;
12519;SDS011;6325;49.540;8.364;2024-03-08T09:57:32;11.60;;;10.40;;
12519;SDS011;6325;49.540;8.364;2024-03-08T10:00:00;10.30;;;9.30;;
12519;SDS011;6325;49.540;8.364;2024-03-08T10:02:27;10.53;;;9.43;;
12519;SDS011;6325;49.540;8.364;2024-03-08T10:04:55;11.02;;;9.93;;
12519;SDS011;6325;49.540;8.364;2024-03-08T10:07:23;10.48;;;9.48;;
12519;SDS011;6325;49.540;8.364;2024-03-08T10:09:51;11.00;;;9.90;;
12519;SDS011;6325;49.540;8.364;2024-03-08T10:12:18;10.65;;;9.55;;
12519;SDS011;6325;49.540;8.364;2024-03-08T10:14:46;11.32;;;10.10;;
12519;SDS011;6325;49.540;8.364;2024-03-08T10:17:12;10.05;;;9.00;;
12519;SDS011;6325;49.540;8.364;2024-03-08T10:19:39;10.50;;;9.50;;
12519;SDS011;6325;49.540;8.364;2024-03-08T10:22:17;10.10;;;9.10;;
12519;SDS011;6325;49.540;8.364;2024-03-08T10:24:44;11.05;;;9.80;;
12519;SDS011;6325;49.540;8.364;2024-03-08T10:27:11;10.48;;;9.48;;
12519;SDS011;6325;49.540;8.364;2024-03-08T10:29:38;10.73;;;9.63;;
12519;SDS011;6325;49.540;8.364;2024-03-08T10:32:09;10.73;;;9.63;;
12519;SDS011;6325;49.540;8.364;2024-03-08T10:34:37;10.07;;;9.07;;
12519;SDS011;6325;49.540;8.364;2024-03-08T10:37:04;10.10;;;9.10;;
12519;SDS011;6325;49.540;8.364;2024-03-08T10:39:34;11.07;;;9.98;;
12519;SDS011;6325;49.540;8.364;2024-03-08T10:42:02;11.00;;;9.73;;
12519;SDS011;6325;49.540;8.364;2024-03-08T10:44:40;10.83;;;9.73;;
12519;SDS011;6325;49.540;8.364;2024-03-08T10:47:15;10.73;;;9.60;;
12519;SDS011;6325;49.540;8.364;2024-03-08T10:49:49;10.43;;;9.43;;
12519;SDS011;6325;49.540;8.364;2024-03-08T10:52:20;11.10;;;9.87;;
12519;SDS011;6325;49.540;8.364;2024-03-08T10:54:49;10.75;;;9.65;;
12519;SDS011;6325;49.540;8.364;2024-03-08T10:57:19;11.20;;;10.00;;
12519;SDS011;6325;49.540;8.364;2024-03-08T10:59:48;11.10;;;10.00;;
12519;SDS011;6325;49.540;8.364;2024-03-08T11:02:17;10.85;;;9.75;;
12519;SDS011;6325;49.540;8.364;2024-03-08T11:04:47;10.80;;;9.70;;
12519;SDS011;6325;49.540;8.364;2024-03-08T11:07:15;10.75;;;9.73;;
12519;SDS011;6325;49.540;8.364;2024-03-08T11:09:44;11.20;;;9.40;;
12519;SDS011;6325;49.540;8.364;2024-03-08T11:12:21;10.15;;;9.10;;
12519;SDS011;6325;49.540;8.364;2024-03-08T11:14:51;10.85;;;9.75;;
12519;SDS011;6325;49.540;8.364;2024-03-08T11:17:25;10.57;;;9.38;;
12519;SDS011;6325;49.540;8.364;2024-03-08T11:20:08;10.90;;;9.80;;
12519;SDS011;6325;49.540;8.364;2024-03-08T11:22:40;10.50;;;9.43;;
12519;SDS011;6325;49.540;8.364;2024-03-08T11:25:10;10.13;;;9.02;;
12519;SDS011;6325;49.540;8.364;2024-03-08T11:28:07;11.25;;;10.15;;
12519;SDS011;6325;49.540;8.364;2024-03-08T11:30:41;10.70;;;9.60;;
12519;SDS011;6325;49.540;8.364;2024-03-08T11:33:10;10.20;;;9.20;;
12519;SDS011;6325;49.540;8.364;2024-03-08T11:35:38;10.45;;;9.38;;
12519;SDS011;6325;49.540;8.364;2024-03-08T11:38:05;10.77;;;9.68;;
12519;SDS011;6325;49.540;8.364;2024-03-08T11:40:34;11.52;;;9.43;;
12519;SDS011;6325;49.540;8.364;2024-03-08T11:43:01;11.23;;;9.45;;
12519;SDS011;6325;49.540;8.364;2024-03-08T11:45:33;10.30;;;9.30;;
12519;SDS011;6325;49.540;8.364;2024-03-08T11:48:01;9.82;;;8.93;;
12519;SDS011;6325;49.540;8.364;2024-03-08T11:50:29;9.90;;;8.90;;
12519;SDS011;6325;49.540;8.364;2024-03-08T11:53:01;11.65;;;9.77;;
12519;SDS011;6325;49.540;8.364;2024-03-08T11:55:29;9.98;;;9.07;;
12519;SDS011;6325;49.540;8.364;2024-03-08T11:58:01;10.43;;;9.35;;
12519;SDS011;6325;49.540;8.364;2024-03-08T12:00:28;10.00;;;9.00;;
12519;SDS011;6325;49.540;8.364;2024-03-08T12:03:05;10.02;;;9.02;;
12519;SDS011;6325;49.540;8.364;2024-03-08T12:05:32;10.23;;;9.13;;
12519;SDS011;6325;49.540;8.364;2024-03-08T12:08:00;10.20;;;9.20;;
12519;SDS011;6325;49.540;8.364;2024-03-08T12:10:28;10.20;;;9.10;;
12519;SDS011;6325;49.540;8.364;2024-03-08T12:12:56;10.05;;;9.05;;
12519;SDS011;6325;49.540;8.364;2024-03-08T12:15:25;9.90;;;9.00;;
12519;SDS011;6325;49.540;8.364;2024-03-08T12:17:52;9.82;;;8.93;;
12519;SDS011;6325;49.540;8.364;2024-03-08T12:20:22;10.15;;;9.15;;
12519;SDS011;6325;49.540;8.364;2024-03-08T12:22:51;10.07;;;9.07;;
12519;SDS011;6325;49.540;8.364;2024-03-08T12:25:21;9.98;;;8.98;;
12519;SDS011;6325;49.540;8.364;2024-03-08T12:27:48;9.93;;;8.93;;
12519;SDS011;6325;49.540;8.364;2024-03-08T12:30:18;10.00;;;9.00;;
12519;SDS011;6325;49.540;8.364;2024-03-08T12:32:48;9.65;;;8.70;;
12519;SDS011;6325;49.540;8.364;2024-03-08T12:35:18;9.40;;;8.40;;
12519;SDS011;6325;49.540;8.364;2024-03-08T12:37:49;10.35;;;9.35;;
12519;SDS011;6325;49.540;8.364;2024-03-08T12:40:18;10.32;;;9.32;;
12519;SDS011;6325;49.540;8.364;2024-03-08T12:42:46;9.50;;;8.60;;
12519;SDS011;6325;49.540;8.364;2024-03-08T12:45:13;9.52;;;8.63;;
12519;SDS011;6325;49.540;8.364;2024-03-08T12:47:41;9.82;;;8.85;;
12519;SDS011;6325;49.540;8.364;2024-03-08T12:50:08;9.77;;;8.82;;
12519;SDS011;6325;49.540;8.364;2024-03-08T12:52:36;10.70;;;9.60;;
12519;SDS011;6325;49.540;8.364;2024-03-08T12:55:04;10.27;;;9.27;;
12519;SDS011;6325;49.540;8.364;2024-03-08T12:57:33;12.23;;;8.80;;
12519;SDS011;6325;49.540;8.364;2024-03-08T13:00:00;11.07;;;9.82;;
12519;SDS011;6325;49.540;8.364;2024-03-08T13:02:29;9.98;;;8.98;;
12519;SDS011;6325;49.540;8.364;2024-03-08T13:04:57;9.40;;;8.50;;
12519;SDS011;6325;49.540;8.364;2024-03-08T13:07:25;9.70;;;8.70;;
12519;SDS011;6325;49.540;8.364;2024-03-08T13:09:52;9.80;;;8.77;;
12519;SDS011;6325;49.540;8.364;2024-03-08T13:12:21;9.68;;;8.68;;
12519;SDS011;6325;49.540;8.364;2024-03-08T13:14:48;11.20;;;9.48;;
12519;SDS011;6325;49.540;8.364;2024-03-08T13:17:15;9.20;;;8.30;;
12519;SDS011;6325;49.540;8.364;2024-03-08T13:19:43;10.48;;;9.40;;
12519;SDS011;6325;49.540;8.364;2024-03-08T13:22:10;9.32;;;8.43;;
12519;SDS011;6325;49.540;8.364;2024-03-08T13:24:38;10.13;;;9.02;;
12519;SDS011;6325;49.540;8.364;2024-03-08T13:27:06;9.25;;;8.35;;
12519;SDS011;6325;49.540;8.364;2024-03-08T13:29:45;9.57;;;8.68;;
12519;SDS011;6325;49.540;8.364;2024-03-08T13:32:13;9.25;;;8.35;;
12519;SDS011;6325;49.540;8.364;2024-03-08T13:34:41;9.70;;;8.80;;
12519;SDS011;6325;49.540;8.364;2024-03-08T13:37:08;9.38;;;8.48;;
12519;SDS011;6325;49.540;8.364;2024-03-08T13:39:35;10.13;;;9.13;;
12519;SDS011;6325;49.540;8.364;2024-03-08T13:42:07;11.23;;;9.20;;
12519;SDS011;6325;49.540;8.364;2024-03-08T13:44:34;9.77;;;8.77;;
12519;SDS011;6325;49.540;8.364;2024-03-08T13:47:03;9.60;;;8.70;;
12519;SDS011;6325;49.540;8.364;2024-03-08T13:49:32;9.70;;;8.70;;
12519;SDS011;6325;49.540;8.364;2024-03-08T13:51:59;9.95;;;8.73;;
12519;SDS011;6325;49.540;8.364;2024-03-08T13:54:26;9.43;;;8.50;;
12519;SDS011;6325;49.540;8.364;2024-03-08T13:56:56;9.30;;;8.40;;
12519;SDS011;6325;49.540;8.364;2024-03-08T13:59:23;8.88;;;7.70;;
12519;SDS011;6325;49.540;8.364;2024-03-08T14:01:54;10.25;;;8.60;;
12519;SDS011;6325;49.540;8.364;2024-03-08T14:04:22;8.45;;;7.65;;
12519;SDS011;6325;49.540;8.364;2024-03-08T14:06:51;9.90;;;8.90;;
12519;SDS011;6325;49.540;8.364;2024-03-08T14:09:21;9.20;;;8.30;;
12519;SDS011;6325;49.540;8.364;2024-03-08T14:11:49;9.30;;;8.40;;
12519;SDS011;6325;49.540;8.364;2024-03-08T14:14:18;9.60;;;8.60;;
12519;SDS011;6325;49.540;8.364;2024-03-08T14:16:45;8.40;;;7.60;;
12519;SDS011;6325;49.540;8.364;2024-03-08T14:19:12;9.48;;;8.48;;
12519;SDS011;6325;49.540;8.364;2024-03-08T14:21:41;9.40;;;8.50;;
12519;SDS011;6325;49.540;8.364;2024-03-08T14:24:08;9.77;;;8.77;;
12519;SDS011;6325;49.540;8.364;2024-03-08T14:26:35;9.17;;;8.27;;
12519;SDS011;6325;49.540;8.364;2024-03-08T14:29:03;8.70;;;7.80;;
12519;SDS011;6325;49.540;8.364;2024-03-08T14:31:30;9.85;;;8.80;;
12519;SDS011;6325;49.540;8.364;2024-03-08T14:33:57;9.75;;;8.75;;
12519;SDS011;6325;49.540;8.364;2024-03-08T14:36:24;11.23;;;8.63;;
12519;SDS011;6325;49.540;8.364;2024-03-08T14:38:53;9.85;;;8.43;;
12519;SDS011;6325;49.540;8.364;2024-03-08T14:41:19;9.23;;;8.23;;
12519;SDS011;6325;49.540;8.364;2024-03-08T14:43:47;8.98;;;8.07;;
12519;SDS011;6325;49.540;8.364;2024-03-08T14:46:14;9.27;;;8.38;;
12519;SDS011;6325;49.540;8.364;2024-03-08T14:48:42;8.98;;;8.07;;
12519;SDS011;6325;49.540;8.364;2024-03-08T14:51:09;9.32;;;8.35;;
12519;SDS011;6325;49.540;8.364;2024-03-08T14:53:39;9.20;;;8.30;;
12519;SDS011;6325;49.540;8.364;2024-03-08T14:56:08;9.30;;;8.40;;